Time;durP1;ratioP1;P1;durP2;ratioP2;P2;SDS_P1;SDS_P2;PMS_P1;PMS_P2;Temp;Humidity;BMP_temperature;BMP_pressure;BME280_temperature;BME280_humidity;BME280_pressure;Samples;Min_cycle;Max_cycle;Signal;HPM_P1;HPM_P2
2022/11/20 00:01:25;;;;;;;8.27;6.73;;;8.30;99.90;;;;;;5073203;28;20299;-55
2022/11/20 00:03:52;;;;;;;8.67;6.40;;;8.30;99.90;;;;;;5073584;28;20295;-55
2022/11/20 00:06:20;;;;;;;8.57;6.80;;;8.30;99.90;;;;;;5072859;28;20295;-55
2022/11/20 00:08:48;;;;;;;7.60;6.33;;;8.40;99.90;;;;;;5072296;28;20681;-55
2022/11/20 00:11:16;;;;;;;8.47;6.10;;;8.30;99.90;;;;;;5073021;28;20213;-55
2022/11/20 00:13:44;;;;;;;8.63;6.33;;;8.30;99.90;;;;;;5073315;28;20304;-55
2022/11/20 00:16:12;;;;;;;7.33;6.00;;;8.30;99.90;;;;;;5072771;28;20227;-56
2022/11/20 00:18:42;;;;;;;8.37;5.97;;;8.40;99.90;;;;;;5072429;28;20205;-55
2022/11/20 00:21:12;;;;;;;8.27;6.37;;;8.40;99.90;;;;;;5072960;28;20209;-55
2022/11/20 00:23:39;;;;;;;9.57;6.63;;;8.20;99.90;;;;;;5072831;28;20591;-56
2022/11/20 00:26:08;;;;;;;7.60;6.37;;;8.20;99.90;;;;;;5072823;28;20254;-55
2022/11/20 00:28:35;;;;;;;9.23;7.17;;;8.30;99.90;;;;;;5072133;28;20223;-56
2022/11/20 00:31:03;;;;;;;9.50;7.23;;;8.30;99.90;;;;;;5072464;28;20225;-55
2022/11/20 00:33:30;;;;;;;11.40;8.13;;;8.40;99.90;;;;;;5072554;28;20262;-56
2022/11/20 00:36:02;;;;;;;9.90;7.90;;;8.30;99.90;;;;;;5072329;28;20220;-56
2022/11/20 00:38:29;;;;;;;9.60;7.53;;;8.10;99.90;;;;;;5072193;28;20215;-55
2022/11/20 00:40:57;;;;;;;11.87;7.80;;;7.90;99.90;;;;;;5072438;28;20544;-55
2022/11/20 00:43:24;;;;;;;12.10;7.93;;;7.80;99.90;;;;;;5072538;28;20219;-55
2022/11/20 00:45:51;;;;;;;11.33;8.90;;;7.70;99.90;;;;;;5072363;28;20205;-55
2022/11/20 00:48:18;;;;;;;10.27;8.00;;;7.80;99.90;;;;;;5072146;28;20299;-55
2022/11/20 00:50:44;;;;;;;10.93;7.90;;;7.90;99.90;;;;;;5072508;28;20315;-55
2022/11/20 00:53:13;;;;;;;10.23;7.87;;;8.10;99.90;;;;;;5072333;28;20204;-56
2022/11/20 00:55:40;;;;;;;9.80;7.57;;;8.20;99.90;;;;;;5072306;28;20339;-56
2022/11/20 00:58:07;;;;;;;9.97;7.60;;;8.30;99.90;;;;;;5072430;28;20213;-55
2022/11/20 01:00:35;;;;;;;8.87;7.43;;;8.30;99.90;;;;;;5072527;28;20228;-55
2022/11/20 01:03:01;;;;;;;8.77;6.90;;;8.30;99.90;;;;;;5072116;28;20209;-55
2022/11/20 01:05:28;;;;;;;11.10;8.40;;;8.30;99.90;;;;;;5071957;28;20208;-55
2022/11/20 01:07:55;;;;;;;9.93;7.83;;;8.20;99.90;;;;;;5072486;28;20205;-55
2022/11/20 01:10:23;;;;;;;9.07;7.83;;;8.20;99.90;;;;;;5071693;28;20256;-56
2022/11/20 01:13:36;;;;;;;11.87;7.63;;;8.20;99.90;;;;;;5072127;28;20212;-56
2022/11/20 01:15:37;;;;;;;8.77;7.20;;;8.30;99.90;;;;;;5071810;28;20232;-55
2022/11/20 01:18:05;;;;;;;9.90;7.80;;;8.30;99.90;;;;;;5072300;28;20219;-55
2022/11/20 01:20:34;;;;;;;11.80;8.20;;;8.40;99.90;;;;;;5072110;28;20244;-56
2022/11/20 01:23:01;;;;;;;14.17;10.77;;;8.50;99.90;;;;;;5072096;28;20204;-57
2022/11/20 01:25:30;;;;;;;9.37;7.57;;;8.50;99.90;;;;;;5072069;28;20296;-56
2022/11/20 01:27:57;;;;;;;9.83;7.60;;;8.50;99.90;;;;;;5071880;28;20204;-56
2022/11/20 01:30:23;;;;;;;11.67;8.60;;;8.50;99.90;;;;;;5071352;28;20228;-56
2022/11/20 01:32:50;;;;;;;11.77;8.17;;;8.50;99.90;;;;;;5071969;28;20219;-56
2022/11/20 01:35:17;;;;;;;10.77;8.43;;;8.50;99.90;;;;;;5072313;28;20212;-56
2022/11/20 01:37:44;;;;;;;10.87;7.93;;;8.40;99.90;;;;;;5071885;28;20724;-56
2022/11/20 01:40:12;;;;;;;11.27;8.20;;;8.40;99.90;;;;;;5071060;28;20225;-56
2022/11/20 01:45:58;;;;;;;8.60;7.50;;;8.40;99.90;;;;;;5071974;28;20848;-56
2022/11/20 01:48:29;;;;;;;9.97;7.87;;;8.40;99.90;;;;;;5071335;28;20274;-56
2022/11/20 01:50:57;;;;;;;10.17;7.63;;;8.40;99.90;;;;;;5071543;28;20236;-57
2022/11/20 01:53:29;;;;;;;8.97;7.20;;;8.50;99.90;;;;;;5072055;28;20205;-56
2022/11/20 01:56:00;;;;;;;9.70;7.43;;;8.60;99.90;;;;;;5071921;28;20224;-57
2022/11/20 01:58:32;;;;;;;9.83;7.53;;;8.60;99.90;;;;;;5071541;28;20295;-56
2022/11/20 02:00:59;;;;;;;9.03;7.77;;;8.50;99.90;;;;;;5071672;28;20605;-56
2022/11/20 02:03:27;;;;;;;9.80;7.30;;;8.50;99.90;;;;;;5072075;28;20213;-56
2022/11/20 02:06:00;;;;;;;10.33;7.43;;;8.50;99.90;;;;;;5073050;28;20231;-56
2022/11/20 02:08:27;;;;;;;9.30;6.57;;;8.40;99.90;;;;;;5075201;28;20216;-58
2022/11/20 02:10:54;;;;;;;8.00;6.23;;;8.40;99.90;;;;;;5075267;28;20705;-56
2022/11/20 02:16:11;;;;;;;7.40;5.10;;;8.30;99.90;;;;;;5075379;28;20306;-56
2022/11/20 02:18:39;;;;;;;5.60;4.60;;;8.20;99.90;;;;;;5074769;28;20673;-56
2022/11/20 02:21:10;;;;;;;5.10;4.50;;;8.20;99.90;;;;;;5075473;28;20617;-56
2022/11/20 02:23:40;;;;;;;5.40;4.33;;;8.30;99.90;;;;;;5075232;28;20213;-57
2022/11/20 02:26:13;;;;;;;6.70;4.70;;;8.30;99.90;;;;;;5075382;28;20673;-56
2022/11/20 02:28:40;;;;;;;4.63;4.23;;;8.30;99.90;;;;;;5075064;28;20205;-56
2022/11/20 02:31:07;;;;;;;6.60;4.43;;;8.50;99.90;;;;;;5075711;28;20224;-56
2022/11/20 02:33:34;;;;;;;5.60;4.10;;;8.50;99.90;;;;;;5075609;28;20209;-56
2022/11/20 02:36:01;;;;;;;5.33;3.97;;;8.60;99.90;;;;;;5075619;28;20215;-56
2022/11/20 02:38:28;;;;;;;6.30;4.37;;;8.60;99.90;;;;;;5074602;28;20216;-56
2022/11/20 02:40:54;;;;;;;6.43;4.73;;;8.70;99.90;;;;;;5075593;28;20635;-56
2022/11/20 02:43:23;;;;;;;4.30;3.90;;;8.70;99.90;;;;;;5076089;28;20216;-56
2022/11/20 02:45:50;;;;;;;6.63;4.00;;;8.80;99.90;;;;;;5075626;28;20209;-56
2022/11/20 02:48:17;;;;;;;3.53;3.20;;;8.80;99.90;;;;;;5075243;28;20740;-56
2022/11/20 02:50:43;;;;;;;3.53;2.93;;;8.80;99.90;;;;;;5074970;28;20237;-56
2022/11/20 02:53:10;;;;;;;5.53;3.30;;;8.90;99.90;;;;;;5075597;28;20201;-56
2022/11/20 02:55:37;;;;;;;3.97;2.93;;;8.90;99.90;;;;;;5075380;28;20560;-56
2022/11/20 02:58:04;;;;;;;2.97;2.47;;;8.90;99.90;;;;;;5075641;28;20228;-56
2022/11/20 03:00:33;;;;;;;3.20;2.70;;;8.90;99.90;;;;;;5074831;28;20324;-56
2022/11/20 03:03:00;;;;;;;3.93;2.80;;;9.00;99.90;;;;;;5075689;28;20292;-56
2022/11/20 03:05:26;;;;;;;3.63;2.57;;;9.10;99.90;;;;;;5075423;28;20236;-56
2022/11/20 03:07:53;;;;;;;4.10;3.00;;;9.10;99.90;;;;;;5075953;28;20202;-56
2022/11/20 03:10:20;;;;;;;4.33;3.00;;;9.10;99.90;;;;;;5075004;28;20251;-56
2022/11/20 03:12:47;;;;;;;3.37;2.60;;;9.10;99.90;;;;;;5075762;28;20201;-56
2022/11/20 03:15:14;;;;;;;4.07;2.57;;;9.10;99.90;;;;;;5076109;28;20213;-57
2022/11/20 03:17:42;;;;;;;5.03;3.03;;;9.10;99.90;;;;;;5075624;28;20225;-56
2022/11/20 03:20:10;;;;;;;5.07;2.50;;;9.10;99.90;;;;;;5075046;28;20236;-56
2022/11/20 03:22:37;;;;;;;5.20;2.90;;;9.00;99.90;;;;;;5075401;28;20236;-56
2022/11/20 03:25:04;;;;;;;4.90;2.90;;;8.90;99.90;;;;;;5075055;28;20244;-56
2022/11/20 03:27:34;;;;;;;3.27;2.63;;;8.90;99.90;;;;;;5075288;28;20595;-56
2022/11/20 03:30:01;;;;;;;2.73;2.23;;;8.80;99.90;;;;;;5074406;28;20709;-56
2022/11/20 03:32:27;;;;;;;3.73;2.60;;;8.80;99.90;;;;;;5075349;28;20676;-56
2022/11/20 03:34:56;;;;;;;2.30;2.10;;;8.90;99.90;;;;;;5074789;28;20207;-56
2022/11/20 03:37:22;;;;;;;4.13;2.20;;;8.90;99.90;;;;;;5073989;28;20235;-57
2022/11/20 03:39:49;;;;;;;2.47;2.27;;;8.90;99.90;;;;;;5073993;28;20724;-56
2022/11/20 03:44:57;;;;;;;3.37;3.00;;;8.90;99.90;;;;;;5073525;28;20656;-56
2022/11/20 03:47:24;;;;;;;4.60;2.77;;;8.90;99.90;;;;;;5074094;28;20586;-56
2022/11/20 03:49:50;;;;;;;4.67;2.70;;;8.80;99.90;;;;;;5073561;28;20229;-56
2022/11/20 03:52:18;;;;;;;3.20;2.60;;;8.70;99.90;;;;;;5073754;28;20664;-57
2022/11/20 03:54:45;;;;;;;2.87;2.43;;;8.60;99.90;;;;;;5073814;28;20213;-56
2022/11/20 03:57:12;;;;;;;2.60;2.20;;;8.60;99.90;;;;;;5073590;28;20227;-56
2022/11/20 03:59:39;;;;;;;2.50;2.00;;;8.60;99.90;;;;;;5072850;28;20232;-57
2022/11/20 04:02:06;;;;;;;4.33;2.20;;;8.60;99.90;;;;;;5073597;28;20204;-57
2022/11/20 04:04:32;;;;;;;3.57;2.10;;;8.60;99.90;;;;;;5073367;28;20209;-56
2022/11/20 04:06:59;;;;;;;2.47;2.00;;;8.50;99.90;;;;;;5073440;28;20239;-56
2022/11/20 04:09:27;;;;;;;2.33;2.00;;;8.60;99.90;;;;;;5072601;28;20233;-56
2022/11/20 04:11:54;;;;;;;2.77;2.03;;;8.50;99.90;;;;;;5073293;28;20673;-56
2022/11/20 04:14:21;;;;;;;2.70;2.00;;;8.50;99.90;;;;;;5073160;28;20209;-56
2022/11/20 04:16:48;;;;;;;3.77;2.00;;;8.60;99.90;;;;;;5073059;28;20220;-56
2022/11/20 04:19:16;;;;;;;2.27;1.90;;;8.60;99.90;;;;;;5072663;28;20235;-57
2022/11/20 04:21:44;;;;;;;3.07;2.50;;;8.60;99.90;;;;;;5073160;28;20209;-57
2022/11/20 04:24:11;;;;;;;2.30;2.07;;;8.60;99.90;;;;;;5072952;28;20211;-56
2022/11/20 04:26:39;;;;;;;2.73;1.80;;;8.50;99.90;;;;;;5073222;28;20201;-56
2022/11/20 04:29:06;;;;;;;2.83;1.97;;;8.60;99.90;;;;;;5071498;28;20225;-56
2022/11/20 04:31:35;;;;;;;2.97;2.07;;;8.60;99.90;;;;;;5072908;28;20205;-56
2022/11/20 04:34:02;;;;;;;4.17;2.30;;;8.60;99.90;;;;;;5073255;28;20205;-56
2022/11/20 04:36:30;;;;;;;5.30;2.00;;;8.70;99.90;;;;;;5072948;28;20299;-56
2022/11/20 04:38:58;;;;;;;3.10;2.47;;;8.70;99.90;;;;;;5072109;28;20584;-57
2022/11/20 04:41:27;;;;;;;2.73;2.20;;;8.70;99.90;;;;;;5072801;28;20205;-57
2022/11/20 04:44:02;;;;;;;2.77;2.47;;;8.70;99.90;;;;;;5072717;28;20232;-54
2022/11/20 04:46:30;;;;;;;3.67;2.10;;;8.60;99.90;;;;;;5072903;28;20294;-57
2022/11/20 04:48:57;;;;;;;2.97;2.13;;;8.70;99.90;;;;;;5072439;28;20209;-55
2022/11/20 04:51:24;;;;;;;2.07;1.87;;;8.80;99.90;;;;;;5072708;28;20683;-55
2022/11/20 04:53:50;;;;;;;2.43;2.13;;;8.80;99.90;;;;;;5073048;28;20208;-55
2022/11/20 04:56:17;;;;;;;2.67;2.10;;;8.80;99.90;;;;;;5072679;28;20211;-57
2022/11/20 04:58:44;;;;;;;3.20;2.20;;;8.90;99.90;;;;;;5072489;28;20224;-55
2022/11/20 05:01:14;;;;;;;1.93;1.73;;;9.00;99.90;;;;;;5072515;28;20204;-55
2022/11/20 05:03:41;;;;;;;3.40;2.20;;;9.00;99.90;;;;;;5072526;28;20293;-55
2022/11/20 05:06:09;;;;;;;3.40;2.50;;;9.00;99.90;;;;;;5072231;28;20244;-55
2022/11/20 05:08:36;;;;;;;3.10;2.20;;;8.90;99.90;;;;;;5071803;28;20292;-56
2022/11/20 05:11:04;;;;;;;2.30;2.10;;;8.90;99.90;;;;;;5072329;28;20248;-55
2022/11/20 05:13:31;;;;;;;2.87;2.00;;;8.90;99.90;;;;;;5072449;28;20211;-55
2022/11/20 05:16:03;;;;;;;2.97;2.20;;;9.00;99.90;;;;;;5072157;28;20684;-57
2022/11/20 05:18:31;;;;;;;3.30;2.50;;;9.00;99.90;;;;;;5072230;28;20225;-56
2022/11/20 05:20:59;;;;;;;3.70;2.40;;;9.00;99.90;;;;;;5072048;28;20253;-56
2022/11/20 05:23:26;;;;;;;4.83;3.23;;;9.00;99.90;;;;;;5072080;28;20288;-56
2022/11/20 05:25:54;;;;;;;5.23;3.23;;;8.90;99.90;;;;;;5072482;28;20286;-55
2022/11/20 05:28:22;;;;;;;3.13;1.90;;;8.80;99.90;;;;;;5072456;28;20239;-55
2022/11/20 05:30:49;;;;;;;3.03;2.17;;;8.80;99.90;;;;;;5071984;28;20290;-55
2022/11/20 05:33:16;;;;;;;2.67;2.30;;;8.80;99.90;;;;;;5072388;28;20204;-55
2022/11/20 05:35:44;;;;;;;2.60;2.10;;;8.90;99.90;;;;;;5072264;28;20208;-55
2022/11/20 05:38:11;;;;;;;3.90;1.93;;;8.80;99.90;;;;;;5071984;28;20234;-55
2022/11/20 05:40:38;;;;;;;3.37;2.10;;;8.90;99.90;;;;;;5074191;28;20311;-55
2022/11/20 05:43:05;;;;;;;2.73;2.20;;;8.90;99.90;;;;;;5076407;28;20212;-56
2022/11/20 05:45:31;;;;;;;4.53;3.07;;;8.80;99.90;;;;;;5076456;28;20205;-56
2022/11/20 05:47:59;;;;;;;2.90;2.03;;;8.90;99.90;;;;;;5076111;28;20208;-55
2022/11/20 05:50:26;;;;;;;3.73;2.27;;;8.90;99.90;;;;;;5075319;28;20420;-56
2022/11/20 05:52:54;;;;;;;3.90;2.33;;;8.90;99.90;;;;;;5076166;28;20216;-56
2022/11/20 05:55:21;;;;;;;3.53;2.00;;;8.90;99.90;;;;;;5076339;28;20214;-56
2022/11/20 05:57:48;;;;;;;3.27;2.20;;;9.00;99.90;;;;;;5076364;28;20247;-56
2022/11/20 06:00:16;;;;;;;3.60;2.37;;;8.90;99.90;;;;;;5075455;28;20311;-56
2022/11/20 06:02:43;;;;;;;2.97;2.00;;;8.90;99.90;;;;;;5076272;28;20264;-56
2022/11/20 06:05:10;;;;;;;2.57;2.27;;;8.80;99.90;;;;;;5076244;28;20661;-56
2022/11/20 06:07:36;;;;;;;3.37;2.33;;;8.80;99.90;;;;;;5075791;28;20333;-56
2022/11/20 06:10:05;;;;;;;2.87;2.17;;;8.80;99.90;;;;;;5075737;28;20260;-56
2022/11/20 06:12:33;;;;;;;2.10;1.90;;;8.80;99.90;;;;;;5076173;28;20211;-56
2022/11/20 06:15:00;;;;;;;4.13;2.17;;;8.80;99.90;;;;;;5076156;28;20611;-56
2022/11/20 06:17:27;;;;;;;3.53;2.00;;;8.80;99.90;;;;;;5075939;28;20224;-55
2022/11/20 06:19:54;;;;;;;2.50;1.97;;;8.80;99.90;;;;;;5075553;28;20221;-56
2022/11/20 06:22:21;;;;;;;3.77;2.20;;;8.80;99.90;;;;;;5075581;28;20303;-56
2022/11/20 06:24:48;;;;;;;2.63;2.10;;;8.80;99.90;;;;;;5075319;28;20673;-55
2022/11/20 06:27:17;;;;;;;4.73;2.30;;;8.70;99.90;;;;;;5075099;28;20201;-56
2022/11/20 06:29:44;;;;;;;2.83;2.03;;;8.70;99.90;;;;;;5074877;28;20231;-55
2022/11/20 06:32:11;;;;;;;2.30;2.10;;;8.80;99.90;;;;;;5075537;28;20208;-55
2022/11/20 06:34:38;;;;;;;2.93;1.73;;;8.80;99.90;;;;;;5075439;28;20207;-55
2022/11/20 06:37:05;;;;;;;3.30;2.00;;;8.80;99.90;;;;;;5075568;28;20215;-55
2022/11/20 06:39:32;;;;;;;5.50;2.27;;;8.80;99.90;;;;;;5074846;28;20221;-57
2022/11/20 06:41:58;;;;;;;4.50;2.60;;;8.90;99.90;;;;;;5075071;28;20204;-56
2022/11/20 06:44:27;;;;;;;3.57;2.30;;;8.90;99.90;;;;;;5074782;28;20205;-56
2022/11/20 06:46:53;;;;;;;4.20;2.67;;;8.80;99.90;;;;;;5074973;28;20205;-56
2022/11/20 06:49:20;;;;;;;3.27;2.20;;;8.80;99.90;;;;;;5074488;28;20584;-56
2022/11/20 06:51:47;;;;;;;2.83;1.90;;;8.80;99.90;;;;;;5074266;28;20641;-55
2022/11/20 06:54:14;;;;;;;2.77;1.70;;;8.80;99.90;;;;;;5075045;28;20201;-56
2022/11/20 06:56:40;;;;;;;2.33;2.00;;;8.90;99.90;;;;;;5074783;28;20209;-56
2022/11/20 06:59:07;;;;;;;5.00;2.40;;;8.90;99.90;;;;;;5074122;28;20772;-56
2022/11/20 07:01:36;;;;;;;2.60;1.90;;;8.90;99.90;;;;;;5075025;28;20209;-55
2022/11/20 07:04:03;;;;;;;4.10;2.57;;;8.90;99.90;;;;;;5075029;28;20209;-55
2022/11/20 07:06:29;;;;;;;2.43;1.87;;;8.90;99.90;;;;;;5074606;28;20213;-56
2022/11/20 07:08:56;;;;;;;2.83;1.97;;;8.90;99.90;;;;;;5074037;28;20632;-56
2022/11/20 07:11:23;;;;;;;2.53;2.10;;;8.80;99.90;;;;;;5074753;28;20205;-57
2022/11/20 07:13:51;;;;;;;2.00;1.80;;;8.80;99.90;;;;;;5074513;28;20204;-56
2022/11/20 07:16:17;;;;;;;3.40;1.70;;;8.70;99.90;;;;;;5074747;28;20209;-56
2022/11/20 07:18:45;;;;;;;3.33;2.10;;;8.80;99.90;;;;;;5074453;28;20319;-57
2022/11/20 07:21:12;;;;;;;2.53;1.73;;;8.80;99.90;;;;;;5075993;28;20603;-56
2022/11/20 07:23:39;;;;;;;2.13;1.80;;;8.90;99.90;;;;;;5074699;28;20205;-56
2022/11/20 07:26:06;;;;;;;2.43;1.90;;;9.00;99.90;;;;;;5074916;28;20209;-56
2022/11/20 07:28:33;;;;;;;2.37;1.50;;;8.90;99.90;;;;;;5075017;28;20629;-57
2022/11/20 07:31:01;;;;;;;2.00;1.73;;;9.00;99.90;;;;;;5074449;28;20270;-55
2022/11/20 07:33:28;;;;;;;2.30;1.87;;;9.00;99.90;;;;;;5074900;28;20308;-55
2022/11/20 07:35:56;;;;;;;5.50;3.80;;;9.00;99.90;;;;;;5074222;28;20208;-57
2022/11/20 07:38:22;;;;;;;2.13;1.83;;;9.10;99.90;;;;;;5074565;28;20242;-62
2022/11/20 07:40:53;;;;;;;2.37;1.87;;;9.20;99.90;;;;;;5073688;28;20224;-58
2022/11/20 07:43:20;;;;;;;2.77;2.10;;;9.30;99.90;;;;;;5074598;28;20212;-57
2022/11/20 07:45:47;;;;;;;4.63;1.70;;;9.40;99.90;;;;;;5074248;28;20628;-55
2022/11/20 07:48:14;;;;;;;3.97;2.90;;;9.50;99.90;;;;;;5074475;28;20212;-55
2022/11/20 07:50:41;;;;;;;3.00;2.10;;;9.60;99.90;;;;;;5073524;28;20652;-58
2022/11/20 07:53:09;;;;;;;3.07;2.10;;;9.70;99.90;;;;;;5074751;28;20209;-58
2022/11/20 07:55:36;;;;;;;3.13;2.30;;;9.80;99.90;;;;;;5074044;28;20209;-57
2022/11/20 07:58:03;;;;;;;3.80;2.10;;;9.90;99.90;;;;;;5074132;28;20252;-58
2022/11/20 08:00:29;;;;;;;5.13;2.20;;;10.00;99.90;;;;;;5073020;28;20244;-56
2022/11/20 08:02:56;;;;;;;3.33;2.50;;;10.00;99.90;;;;;;5073448;28;20208;-55
2022/11/20 08:05:24;;;;;;;3.30;2.57;;;10.10;99.90;;;;;;5073427;28;20211;-55
2022/11/20 08:07:51;;;;;;;5.83;2.10;;;10.10;99.90;;;;;;5073229;28;20687;-55
2022/11/20 08:10:19;;;;;;;4.17;2.40;;;10.10;99.90;;;;;;5072732;28;20267;-55
2022/11/20 08:15:31;;;;;;;4.43;3.13;;;10.20;99.90;;;;;;5073421;28;20200;-58
2022/11/20 08:18:02;;;;;;;3.43;2.30;;;10.10;99.90;;;;;;5073687;28;20256;-61
2022/11/20 08:20:29;;;;;;;3.47;2.20;;;10.10;99.90;;;;;;5073179;28;20315;-55
2022/11/20 08:23:00;;;;;;;3.73;2.30;;;10.10;99.90;;;;;;5073732;28;20209;-54
2022/11/20 08:25:29;;;;;;;15.67;12.87;;;10.00;99.90;;;;;;5073492;28;20208;-54
2022/11/20 08:27:58;;;;;;;7.93;5.53;;;10.10;99.90;;;;;;5073516;28;20212;-55
2022/11/20 08:30:25;;;;;;;3.87;2.47;;;10.10;99.90;;;;;;5072385;28;20317;-55
2022/11/20 08:32:52;;;;;;;1.60;1.50;;;10.10;99.90;;;;;;5073024;28;20647;-54
2022/11/20 08:35:19;;;;;;;2.73;1.97;;;10.10;99.90;;;;;;5072624;28;20204;-54
2022/11/20 08:37:47;;;;;;;5.80;2.70;;;10.10;99.90;;;;;;5073011;28;20209;-55
2022/11/20 08:40:14;;;;;;;2.30;1.97;;;10.20;99.90;;;;;;5072226;28;20224;-55
2022/11/20 08:42:48;;;;;;;3.50;1.93;;;10.20;99.90;;;;;;5072827;28;20745;-55
2022/11/20 08:45:15;;;;;;;4.07;2.37;;;10.30;99.90;;;;;;5072502;28;20216;-54
2022/11/20 08:47:42;;;;;;;2.40;1.73;;;10.30;99.90;;;;;;5072304;28;20215;-56
2022/11/20 08:50:10;;;;;;;1.97;1.60;;;10.30;99.90;;;;;;5072238;28;20224;-55
2022/11/20 08:52:37;;;;;;;2.17;1.60;;;10.30;99.90;;;;;;5072529;28;20291;-56
2022/11/20 08:55:06;;;;;;;2.40;2.00;;;10.30;99.90;;;;;;5072489;28;20208;-55
2022/11/20 08:57:33;;;;;;;2.20;1.67;;;10.30;99.90;;;;;;5072501;28;20291;-55
2022/11/20 09:00:01;;;;;;;2.10;1.80;;;10.40;99.90;;;;;;5066859;28;20236;-55
2022/11/20 09:02:28;;;;;;;2.50;1.47;;;10.50;99.90;;;;;;5070710;28;20214;-59
2022/11/20 09:04:55;;;;;;;3.40;2.40;;;10.50;99.90;;;;;;5071741;28;20703;-58
2022/11/20 09:07:22;;;;;;;2.27;1.50;;;10.50;99.90;;;;;;5070641;28;20220;-58
2022/11/20 09:09:48;;;;;;;2.00;1.60;;;10.60;99.90;;;;;;5070418;28;20315;-58
2022/11/20 09:12:15;;;;;;;3.83;2.77;;;10.50;99.90;;;;;;5070785;28;20580;-61
2022/11/20 09:14:42;;;;;;;4.20;2.43;;;10.50;99.90;;;;;;5070987;28;20205;-59
2022/11/20 09:17:13;;;;;;;2.63;1.63;;;10.50;99.90;;;;;;5071083;28;20201;-58
2022/11/20 09:19:41;;;;;;;1.90;1.67;;;10.50;99.90;;;;;;5069844;28;20237;-60
2022/11/20 09:22:08;;;;;;;2.07;1.70;;;10.50;99.90;;;;;;5062231;28;20657;-59
2022/11/20 09:24:34;;;;;;;2.07;1.57;;;10.50;99.90;;;;;;5070563;28;20208;-60
2022/11/20 09:27:04;;;;;;;1.87;1.40;;;10.50;99.90;;;;;;5070999;28;20222;-59
2022/11/20 09:29:31;;;;;;;1.93;1.33;;;10.50;99.90;;;;;;5070762;28;20641;-58
2022/11/20 09:31:57;;;;;;;5.10;3.77;;;10.50;99.90;;;;;;5071093;28;20209;-58
2022/11/20 09:34:25;;;;;;;4.00;1.63;;;10.50;99.90;;;;;;5071584;28;20205;-59
2022/11/20 09:36:52;;;;;;;2.13;1.27;;;10.50;99.90;;;;;;5070627;28;20208;-56
2022/11/20 09:39:19;;;;;;;1.23;1.13;;;10.50;99.90;;;;;;5070517;28;20605;-56
2022/11/20 09:42:08;;;;;;;1.33;1.10;;;10.60;99.90;;;;;;5070802;28;20208;-56
2022/11/20 09:44:49;;;;;;;3.87;1.23;;;10.50;99.90;;;;;;5070992;28;20204;-56
2022/11/20 09:47:27;;;;;;;1.53;1.00;;;10.60;99.90;;;;;;5070418;28;20209;-56
2022/11/20 09:50:08;;;;;;;2.47;1.20;;;10.60;99.90;;;;;;5070121;28;20221;-56
2022/11/20 09:52:45;;;;;;;2.03;1.30;;;10.50;99.90;;;;;;5071032;28;20213;-58
2022/11/20 09:55:14;;;;;;;1.20;0.87;;;10.60;99.90;;;;;;5071151;28;20217;-58
2022/11/20 09:57:44;;;;;;;1.63;0.80;;;10.50;99.90;;;;;;5070945;28;20224;-58
2022/11/20 10:00:13;;;;;;;1.17;0.60;;;10.50;99.90;;;;;;5070316;28;20240;-59
2022/11/20 10:02:45;;;;;;;1.37;0.97;;;10.40;99.90;;;;;;5070325;28;20211;-58
2022/11/20 10:05:19;;;;;;;1.37;0.90;;;10.40;99.90;;;;;;5071424;28;20263;-58
2022/11/20 10:07:54;;;;;;;1.10;0.80;;;10.40;99.90;;;;;;5072080;28;20216;-58
2022/11/20 10:10:31;;;;;;;5.27;2.80;;;10.50;99.90;;;;;;5071332;28;20274;-58
2022/11/20 10:13:10;;;;;;;0.83;0.60;;;10.70;99.90;;;;;;5070861;28;20217;-57
2022/11/20 10:15:49;;;;;;;0.60;0.60;;;10.80;99.90;;;;;;5072863;28;20204;-58
2022/11/20 10:18:28;;;;;;;0.70;0.50;;;10.70;99.90;;;;;;5072428;28;20224;-57
2022/11/20 10:21:04;;;;;;;6.37;5.70;;;10.70;99.90;;;;;;5070844;28;20232;-56
2022/11/20 10:23:52;;;;;;;1.87;1.20;;;10.70;99.90;;;;;;5070909;28;20239;-59
2022/11/20 10:26:26;;;;;;;2.03;1.20;;;10.70;99.90;;;;;;5072331;28;20759;-59
2022/11/20 10:29:08;;;;;;;0.80;0.80;;;10.70;99.90;;;;;;5074803;28;20203;-58
2022/11/20 10:31:37;;;;;;;0.80;0.80;;;10.60;99.90;;;;;;5074587;28;20219;-58
2022/11/20 10:34:08;;;;;;;1.13;0.90;;;10.70;99.90;;;;;;5074656;28;20205;-58
2022/11/20 10:36:41;;;;;;;0.90;0.80;;;10.60;99.90;;;;;;5073885;28;20692;-57
2022/11/20 10:39:22;;;;;;;1.67;1.10;;;10.70;99.90;;;;;;5074251;28;20667;-58
2022/11/20 10:41:53;;;;;;;0.83;0.83;;;10.60;99.90;;;;;;5074901;28;20585;-58
2022/11/20 10:47:02;;;;;;;1.57;1.00;;;10.70;99.90;;;;;;5074256;28;20279;-57
2022/11/20 10:49:31;;;;;;;1.50;0.80;;;10.70;99.90;;;;;;5073758;28;20223;-57
2022/11/20 10:52:08;;;;;;;2.13;0.90;;;10.80;99.90;;;;;;5073845;28;20227;-57
2022/11/20 10:54:42;;;;;;;2.00;0.97;;;10.80;99.90;;;;;;5073780;28;20685;-57
2022/11/20 10:57:18;;;;;;;2.33;0.70;;;10.70;99.90;;;;;;5073860;28;20657;-58
2022/11/20 11:00:02;;;;;;;1.50;0.90;;;10.80;99.90;;;;;;5073241;28;20225;-57
2022/11/20 11:02:35;;;;;;;0.77;0.77;;;10.80;99.90;;;;;;5073303;28;20263;-57
2022/11/20 11:05:12;;;;;;;1.20;1.07;;;10.80;99.90;;;;;;5073229;28;20201;-55
2022/11/20 11:07:41;;;;;;;1.40;1.07;;;10.80;99.90;;;;;;5073481;28;20211;-55
2022/11/20 11:10:17;;;;;;;0.90;0.80;;;10.90;99.90;;;;;;5073518;28;20225;-55
2022/11/20 11:12:46;;;;;;;3.87;2.33;;;11.00;99.90;;;;;;5072605;28;20756;-55
2022/11/20 11:15:25;;;;;;;2.63;1.13;;;10.90;99.90;;;;;;5073529;28;20262;-56
2022/11/20 11:17:51;;;;;;;1.43;0.90;;;10.90;99.90;;;;;;5073060;28;20193;-56
2022/11/20 11:20:20;;;;;;;2.10;0.70;;;10.90;99.90;;;;;;5072728;28;20369;-56
2022/11/20 11:22:50;;;;;;;2.20;1.00;;;10.90;99.90;;;;;;5073268;28;20205;-56
2022/11/20 11:25:27;;;;;;;1.07;0.97;;;10.90;99.90;;;;;;5072944;28;20216;-56
2022/11/20 11:27:56;;;;;;;2.40;1.10;;;11.00;99.90;;;;;;5072902;28;20209;-56
2022/11/20 11:30:24;;;;;;;2.10;1.50;;;11.00;99.90;;;;;;5072562;28;21009;-58
2022/11/20 11:32:51;;;;;;;3.63;2.07;;;11.00;99.90;;;;;;5072966;28;20200;-58
2022/11/20 11:35:26;;;;;;;2.00;1.50;;;11.00;99.90;;;;;;5072975;28;20677;-57
2022/11/20 11:38:03;;;;;;;2.07;1.60;;;11.10;99.90;;;;;;5072363;28;20291;-56
2022/11/20 11:40:33;;;;;;;3.67;1.70;;;11.20;99.90;;;;;;5072398;28;20235;-57
2022/11/20 11:45:59;;;;;;;2.43;1.20;;;11.60;99.90;;;;;;5072329;28;20282;-56
2022/11/20 11:48:26;;;;;;;1.30;1.00;;;11.80;99.90;;;;;;5072516;28;20205;-58
2022/11/20 11:50:53;;;;;;;1.40;1.00;;;11.90;99.90;;;;;;5071447;28;20243;-60
2022/11/20 11:53:24;;;;;;;2.30;1.30;;;12.00;99.90;;;;;;5072612;28;20201;-58
2022/11/20 11:55:59;;;;;;;1.50;1.00;;;12.20;99.90;;;;;;5072857;28;20219;-59
2022/11/20 11:58:39;;;;;;;1.30;1.13;;;12.40;99.90;;;;;;5072412;28;20208;-59
2022/11/20 12:01:21;;;;;;;2.20;1.03;;;12.80;99.90;;;;;;5072840;28;20238;-55
2022/11/20 12:03:56;;;;;;;2.53;1.00;;;13.20;99.90;;;;;;5073887;28;20212;-55
2022/11/20 12:06:24;;;;;;;3.60;1.20;;;13.50;99.90;;;;;;5073571;28;20215;-56
2022/11/20 12:08:57;;;;;;;1.80;1.00;;;13.60;99.90;;;;;;5073613;28;20279;-56
2022/11/20 12:11:33;;;;;;;1.47;1.00;;;13.60;99.90;;;;;;5073061;28;20213;-55
2022/11/20 12:14:10;;;;;;;1.77;1.00;;;13.70;99.90;;;;;;5073475;28;20686;-55
2022/11/20 12:16:39;;;;;;;1.60;1.20;;;13.60;99.90;;;;;;5073254;28;20552;-58
2022/11/20 12:19:12;;;;;;;3.80;1.40;;;13.50;99.90;;;;;;5073438;28;20244;-54
2022/11/20 12:21:50;;;;;;;3.63;2.00;;;13.60;99.90;;;;;;5073003;28;20215;-54
2022/11/20 12:24:51;;;;;;;3.03;1.93;;;13.70;99.90;;;;;;5072989;28;20201;-55
2022/11/20 12:27:45;;;;;;;2.47;1.40;;;13.60;99.90;;;;;;5072834;28;20336;-55
2022/11/20 12:30:15;;;;;;;6.93;3.60;;;13.50;99.90;;;;;;5072428;28;20666;-55
2022/11/20 12:33:01;;;;;;;15.13;9.80;;;13.50;99.90;;;;;;5072668;28;20216;-56
2022/11/20 12:35:44;;;;;;;2.17;1.97;;;13.50;99.90;;;;;;5072921;28;20214;-55
2022/11/20 12:38:43;;;;;;;2.77;1.30;;;13.70;99.90;;;;;;5072726;28;20473;-55
2022/11/20 12:45:09;;;;;;;2.27;1.20;;;13.90;99.90;;;;;;5072186;28;20208;-55
2022/11/20 12:47:20;;;;;;;1.17;0.90;;;13.90;99.90;;;;;;5046442;28;20193;-55
2022/11/20 12:49:57;;;;;;;1.90;0.93;;;13.90;99.90;;;;;;5071386;28;20225;-55
2022/11/20 12:52:40;;;;;;;2.40;1.07;;;13.60;99.90;;;;;;5073016;28;20204;-56
2022/11/20 12:55:33;;;;;;;1.07;0.73;;;13.20;99.90;;;;;;5073425;28;20234;-56
2022/11/20 12:58:12;;;;;;;2.00;1.00;;;12.80;99.90;;;;;;5070462;28;20205;-55
2022/11/20 13:00:44;;;;;;;2.33;1.20;;;12.80;99.90;;;;;;5072714;28;20301;-55
2022/11/20 13:03:30;;;;;;;2.00;1.00;;;12.90;99.90;;;;;;5073041;28;20295;-55
2022/11/20 13:06:06;;;;;;;1.90;1.43;;;13.20;99.90;;;;;;5072761;28;20227;-55
2022/11/20 13:08:35;;;;;;;2.03;1.10;;;13.30;99.90;;;;;;5072844;28;20236;-55
2022/11/20 13:11:12;;;;;;;3.37;1.13;;;13.50;99.90;;;;;;5072084;28;20229;-55
2022/11/20 13:13:56;;;;;;;3.47;0.73;;;13.60;99.90;;;;;;5072439;28;20369;-55
2022/11/20 13:16:31;;;;;;;1.50;0.73;;;13.60;99.90;;;;;;5072084;28;20212;-56
2022/11/20 13:19:03;;;;;;;1.87;0.60;;;13.50;99.90;;;;;;5072307;28;20215;-56
2022/11/20 13:21:38;;;;;;;7.00;3.20;;;13.60;99.90;;;;;;5072548;28;20613;-57
2022/11/20 13:24:06;;;;;;;4.13;1.53;;;13.60;99.90;;;;;;5072701;28;20204;-56
2022/11/20 13:26:33;;;;;;;1.50;0.80;;;13.70;99.90;;;;;;5072281;28;20213;-56